createdAt,value
2019-06-20T14:22:07.736Z,22.04
2019-06-20T14:24:38.952Z,21.71
2019-06-20T14:27:09.587Z,21.74
2019-06-20T14:29:40.242Z,21.80
2019-06-20T14:32:21.833Z,21.83
2019-06-20T14:34:52.057Z,21.49
2019-06-20T14:37:22.820Z,21.50
2019-06-20T14:39:54.931Z,21.30
2019-06-20T14:42:25.628Z,21.65
2019-06-20T14:44:56.311Z,21.82
2019-06-20T14:47:26.929Z,21.63
2019-06-20T14:49:57.597Z,21.98
2019-06-20T14:52:28.223Z,21.74
2019-06-20T14:54:58.863Z,21.68
2019-06-20T14:57:29.484Z,21.67
2019-06-20T15:00:00.113Z,21.99
2019-06-20T15:02:38.482Z,21.53
2019-06-20T15:05:03.083Z,21.68
2019-06-20T15:07:33.957Z,21.54
2019-06-20T15:10:05.345Z,21.66
2019-06-20T15:12:35.972Z,21.97
2019-06-20T15:15:06.716Z,21.55
2019-06-20T15:17:37.314Z,21.33
2019-06-20T15:20:09.199Z,21.06
2019-06-20T15:22:39.820Z,21.05
2019-06-20T15:25:11.271Z,21.53
2019-06-20T15:27:41.897Z,21.72
2019-06-20T15:30:12.794Z,21.70
2019-06-20T15:32:55.260Z,21.49
2019-06-20T15:35:16.932Z,21.50
2019-06-20T15:37:48.475Z,21.42
2019-06-20T15:40:19.941Z,21.83
2019-06-20T15:42:51.546Z,21.80
2019-06-20T15:45:23.162Z,21.48
2019-06-20T15:47:53.885Z,20.97
2019-06-20T15:50:24.560Z,21.16
2019-06-20T15:52:55.195Z,21.66
2019-06-20T15:55:25.873Z,21.78
2019-06-20T15:57:56.655Z,21.83
2019-06-20T16:00:28.093Z,21.77
2019-06-20T16:03:09.528Z,21.58
2019-06-20T16:05:31.532Z,21.54
2019-06-20T16:08:02.483Z,21.73
2019-06-20T16:10:33.343Z,21.75
2019-06-20T16:13:04.045Z,21.58
2019-06-20T16:15:34.722Z,21.58
2019-06-20T16:18:05.416Z,21.75
2019-06-20T16:20:36.419Z,21.71
2019-06-20T16:23:07.090Z,21.53
2019-06-20T16:25:37.718Z,21.66
2019-06-20T16:28:08.378Z,21.65
2019-06-20T16:30:41.153Z,21.51
2019-06-20T16:33:24.011Z,21.67
2019-06-20T16:35:44.200Z,21.68
2019-06-20T16:38:14.877Z,21.76
2019-06-20T16:40:47.998Z,21.70
2019-06-20T16:45:48.060Z,21.59
2019-06-20T16:48:18.758Z,21.47
2019-06-20T16:50:49.391Z,21.63
2019-06-20T16:53:20.077Z,21.74
2019-06-20T16:55:50.764Z,20.85
2019-06-20T16:58:21.447Z,21.23
2019-06-20T17:00:52.108Z,21.51
2019-06-20T17:03:22.817Z,21.53
2019-06-20T17:05:53.453Z,21.63
2019-06-20T17:08:24.152Z,21.52
2019-06-20T17:10:55.193Z,21.57
2019-06-20T17:13:25.870Z,21.43
2019-06-20T17:15:56.612Z,20.96
2019-06-20T17:18:27.345Z,21.39
2019-06-20T17:20:58.107Z,21.56
2019-06-20T17:23:29.559Z,21.49
2019-06-20T17:26:01.513Z,21.68
2019-06-20T17:28:32.810Z,21.78
2019-06-20T17:31:03.715Z,21.77
2019-06-20T17:33:34.430Z,21.54
2019-06-20T17:36:17.789Z,21.68
2019-06-20T17:38:38.151Z,21.71
2019-06-20T17:41:08.786Z,21.13
2019-06-20T17:43:39.398Z,21.41
2019-06-20T17:46:10.050Z,21.46
2019-06-20T17:48:40.685Z,21.41
2019-06-20T17:51:11.319Z,21.05
2019-06-20T17:53:41.955Z,20.28
2019-06-20T17:56:12.914Z,20.41
2019-06-20T17:58:43.545Z,20.39
2019-06-20T18:01:14.138Z,20.45
2019-06-20T18:03:46.790Z,20.31
2019-06-20T18:06:17.894Z,19.83
2019-06-20T18:08:48.543Z,19.87
2019-06-20T18:11:19.252Z,20.29
2019-06-20T18:13:50.936Z,20.43
2019-06-20T18:16:25.302Z,19.71
2019-06-20T18:18:55.219Z,20.33
2019-06-20T18:21:25.952Z,20.04
2019-06-20T18:23:56.569Z,20.29
2019-06-20T18:26:27.639Z,19.99
2019-06-20T18:28:58.760Z,20.08
2019-06-20T18:31:29.514Z,19.86
2019-06-20T18:34:01.229Z,19.60
2019-06-20T18:36:34.651Z,20.35
2019-06-20T18:39:08.031Z,20.28
2019-06-20T18:41:39.019Z,20.32
2019-06-20T18:44:09.884Z,19.89
2019-06-20T18:46:40.809Z,19.70
2019-06-20T18:49:11.670Z,20.07
2019-06-20T18:51:42.487Z,20.53
2019-06-20T18:54:14.357Z,20.29
2019-06-20T18:56:45.350Z,20.10
2019-06-20T18:59:16.131Z,20.14
2019-06-20T19:01:46.992Z,20.00
2019-06-20T19:04:23.645Z,19.86
2019-06-20T19:06:54.352Z,19.53
2019-06-20T19:09:24.994Z,19.87
2019-06-20T19:11:55.634Z,20.28
2019-06-20T19:14:26.384Z,20.40
2019-06-20T19:16:57.133Z,19.95
2019-06-20T19:19:28.058Z,20.27
2019-06-20T19:21:58.964Z,20.43
2019-06-20T19:24:30.001Z,20.25
2019-06-20T19:27:00.854Z,19.39
2019-06-20T19:29:32.245Z,19.53
2019-06-20T19:32:03.330Z,19.46
2019-06-20T19:34:34.227Z,20.00
2019-06-20T19:37:04.958Z,20.31
2019-06-20T19:39:35.662Z,20.42
2019-06-20T19:42:06.396Z,20.45
2019-06-20T19:44:37.202Z,20.45
2019-06-20T19:47:08.038Z,19.64
2019-06-20T19:49:40.753Z,19.36
2019-06-20T19:52:11.715Z,19.69
2019-06-20T19:54:42.937Z,20.00
2019-06-20T19:57:13.654Z,20.22
2019-06-20T19:59:46.227Z,20.14
2019-06-20T20:02:17.148Z,20.19
2019-06-20T20:04:48.570Z,20.30
2019-06-20T20:07:19.933Z,20.33
2019-06-20T20:09:50.782Z,20.26
2019-06-20T20:12:21.454Z,20.28
2019-06-20T20:14:52.209Z,20.18
2019-06-20T20:17:22.924Z,19.72
2019-06-20T20:19:53.596Z,19.56
2019-06-20T20:22:24.264Z,19.78
2019-06-20T20:24:54.935Z,19.66
2019-06-20T20:27:25.547Z,19.79
2019-06-20T20:29:56.294Z,19.98
2019-06-20T20:32:27.108Z,19.91
2019-06-20T20:34:58.167Z,19.54
2019-06-20T20:37:28.927Z,19.60
2019-06-20T20:39:59.687Z,19.80
2019-06-20T20:42:30.512Z,19.96
2019-06-20T20:45:01.253Z,19.99
2019-06-20T20:47:32.533Z,20.04
2019-06-20T20:50:03.299Z,19.95
2019-06-20T20:52:34.016Z,19.85
2019-06-20T20:55:04.691Z,19.26
2019-06-20T20:57:35.677Z,19.42
2019-06-20T21:00:06.951Z,19.29
2019-06-20T21:02:37.617Z,19.62
2019-06-20T21:05:08.847Z,19.60
2019-06-20T21:07:39.886Z,19.48
2019-06-20T21:10:11.989Z,19.62
2019-06-20T21:12:42.612Z,19.79
2019-06-20T21:15:13.999Z,19.69
2019-06-20T21:17:44.683Z,19.64
2019-06-20T21:20:15.611Z,19.59
2019-06-20T21:22:46.232Z,19.13
2019-06-20T21:25:17.198Z,19.17
2019-06-20T21:27:47.850Z,19.31
2019-06-20T21:30:18.776Z,19.46
2019-06-20T21:32:49.496Z,19.50
2019-06-20T21:35:20.134Z,19.11
2019-06-20T21:37:50.768Z,19.44
2019-06-20T21:40:21.393Z,19.21
2019-06-20T21:42:51.982Z,19.08
2019-06-20T21:45:22.803Z,19.14
2019-06-20T21:47:53.435Z,19.28
2019-06-20T21:50:24.006Z,19.48
2019-06-20T21:52:54.651Z,19.59
2019-06-20T21:55:25.271Z,19.25
2019-06-20T21:57:55.898Z,19.26
2019-06-20T22:00:38.438Z,19.42
2019-06-20T22:03:09.535Z,19.36
2019-06-20T22:05:40.598Z,19.32
2019-06-20T22:08:11.228Z,19.10
2019-06-20T22:10:41.826Z,19.19
2019-06-20T22:13:12.455Z,19.09
2019-06-20T22:15:43.040Z,18.96
2019-06-20T22:18:13.959Z,18.97
2019-06-20T22:20:44.554Z,19.17
2019-06-20T22:23:15.201Z,18.98
2019-06-20T22:25:45.819Z,18.68
2019-06-20T22:28:16.401Z,18.20
2019-06-20T22:30:52.089Z,18.26
2019-06-20T22:33:22.697Z,17.97
2019-06-20T22:35:53.345Z,17.80
2019-06-20T22:38:23.953Z,17.96
2019-06-20T22:40:54.524Z,17.55
2019-06-20T22:43:25.114Z,18.00
2019-06-20T22:45:55.712Z,17.86
2019-06-20T22:48:26.639Z,17.66
2019-06-20T22:50:57.229Z,17.13
2019-06-20T22:53:27.846Z,17.31
2019-06-20T22:55:58.421Z,17.58
2019-06-20T22:58:29.005Z,17.89
2019-06-20T23:00:59.615Z,18.25
2019-06-20T23:03:30.174Z,18.27
2019-06-20T23:06:01.020Z,17.50
2019-06-20T23:08:31.605Z,17.50
2019-06-20T23:11:02.181Z,17.96
2019-06-20T23:13:32.789Z,17.84
2019-06-20T23:16:03.494Z,17.21
2019-06-20T23:18:34.093Z,17.18
2019-06-20T23:21:05.351Z,17.40
2019-06-20T23:23:35.969Z,18.01
2019-06-20T23:26:08.182Z,18.29
2019-06-20T23:28:38.857Z,18.40
2019-06-20T23:31:09.791Z,17.80
2019-06-20T23:33:40.379Z,17.59
2019-06-20T23:36:10.983Z,17.33
2019-06-20T23:38:41.590Z,17.06
2019-06-20T23:41:12.244Z,17.05
2019-06-20T23:43:42.827Z,17.13
2019-06-20T23:46:13.412Z,16.64
2019-06-20T23:48:44.051Z,16.74
2019-06-20T23:51:24.997Z,16.68
2019-06-20T23:53:47.014Z,16.67
2019-06-20T23:56:17.604Z,17.15
2019-06-20T23:58:48.203Z,17.21
